Time;durP1;ratioP1;P1;durP2;ratioP2;P2;SDS_P1;SDS_P2;PMS_P1;PMS_P2;Temp;Humidity;BMP_temperature;BMP_pressure;BME280_temperature;BME280_humidity;BME280_pressure;Samples;Min_cycle;Max_cycle;Signal;HPM_P1;HPM_P2
2023/03/26 00:01:23;;;;;;;5.03;2.57;;;15.50;74.30;;;;;;6063471;23;20186;-72
2023/03/26 00:03:56;;;;;;;5.33;2.53;;;15.50;74.40;;;;;;6064186;23;20210;-71
2023/03/26 00:06:26;;;;;;;5.40;2.53;;;15.50;74.40;;;;;;6064768;23;20163;-72
2023/03/26 00:08:56;;;;;;;4.87;2.80;;;15.40;74.50;;;;;;6064224;23;20163;-72
2023/03/26 00:11:27;;;;;;;4.13;2.47;;;15.40;74.70;;;;;;6065264;23;20239;-72
2023/03/26 00:13:56;;;;;;;5.27;2.97;;;15.40;74.90;;;;;;6062762;23;20218;-71
2023/03/26 00:16:26;;;;;;;3.80;2.37;;;15.40;74.80;;;;;;6061568;23;20193;-71
2023/03/26 00:18:57;;;;;;;3.87;2.90;;;15.40;75.00;;;;;;6061173;23;20809;-76
2023/03/26 00:21:27;;;;;;;3.53;2.17;;;15.40;75.20;;;;;;6062576;23;20510;-73
2023/03/26 00:23:58;;;;;;;3.87;2.30;;;15.30;75.20;;;;;;6059826;23;20195;-75
2023/03/26 00:26:28;;;;;;;5.73;3.37;;;15.30;75.20;;;;;;6066718;23;20366;-73
2023/03/26 00:28:57;;;;;;;4.67;2.50;;;15.30;75.50;;;;;;6061397;23;20218;-72
2023/03/26 00:31:25;;;;;;;6.07;2.50;;;15.30;75.70;;;;;;6065308;23;20182;-72
2023/03/26 00:33:54;;;;;;;5.07;2.70;;;15.20;75.90;;;;;;6062791;23;20182;-72
2023/03/26 00:36:25;;;;;;;5.77;3.07;;;15.20;75.90;;;;;;6062513;23;20624;-73
2023/03/26 00:38:54;;;;;;;5.43;2.73;;;15.20;76.30;;;;;;6060980;23;20186;-72
2023/03/26 00:41:29;;;;;;;6.80;2.40;;;15.10;76.90;;;;;;6061553;23;20186;-74
2023/03/26 00:43:59;;;;;;;4.77;2.60;;;15.10;77.00;;;;;;6063559;23;20190;-72
2023/03/26 00:46:29;;;;;;;4.73;2.67;;;15.10;77.50;;;;;;6063681;23;20241;-76
2023/03/26 00:48:59;;;;;;;3.13;2.10;;;15.10;77.50;;;;;;6062944;23;20242;-71
2023/03/26 00:51:29;;;;;;;3.57;2.33;;;15.10;78.00;;;;;;6065806;23;20620;-72
2023/03/26 00:53:58;;;;;;;6.73;2.87;;;15.20;77.80;;;;;;6064082;23;20163;-72
2023/03/26 00:56:26;;;;;;;6.00;3.00;;;15.10;78.40;;;;;;6058487;23;20562;-72
2023/03/26 00:58:56;;;;;;;5.80;3.37;;;15.10;79.40;;;;;;6003970;23;20287;-76
2023/03/26 01:01:27;;;;;;;5.80;2.50;;;15.10;79.10;;;;;;6005188;23;20184;-72
2023/03/26 01:03:58;;;;;;;3.90;2.23;;;15.10;79.90;;;;;;6007159;23;20164;-72
2023/03/26 01:06:34;;;;;;;4.47;2.50;;;15.10;80.50;;;;;;6006049;23;20242;-72
2023/03/26 01:09:12;;;;;;;5.33;2.20;;;15.10;80.30;;;;;;6008367;23;20160;-72
2023/03/26 01:11:40;;;;;;;3.40;1.70;;;15.10;80.90;;;;;;6006183;23;20633;-72
2023/03/26 01:14:11;;;;;;;5.27;2.30;;;15.10;80.60;;;;;;6005406;23;20176;-72
2023/03/26 01:16:43;;;;;;;3.83;1.90;;;15.10;80.90;;;;;;6006156;23;20220;-71
2023/03/26 01:19:17;;;;;;;3.63;1.97;;;15.10;81.30;;;;;;6006334;23;20194;-73
2023/03/26 01:21:47;;;;;;;4.13;2.30;;;15.10;81.60;;;;;;6006741;23;20168;-72
2023/03/26 01:24:17;;;;;;;3.50;1.77;;;15.10;82.00;;;;;;6005719;23;20180;-72
2023/03/26 01:27:03;;;;;;;5.43;2.40;;;15.10;81.80;;;;;;6004262;23;20203;-72
2023/03/26 01:29:36;;;;;;;4.70;2.23;;;15.10;82.70;;;;;;6006459;23;20239;-71
2023/03/26 01:32:25;;;;;;;3.47;1.83;;;15.10;82.40;;;;;;6006893;23;20164;-72
2023/03/26 01:35:07;;;;;;;3.87;2.00;;;15.10;82.80;;;;;;6003707;23;20701;-71
2023/03/26 01:37:45;;;;;;;5.30;2.00;;;15.10;83.00;;;;;;6006008;23;20164;-72
2023/03/26 01:40:23;;;;;;;3.60;1.60;;;15.10;83.00;;;;;;6006236;23;20584;-72
2023/03/26 01:42:58;;;;;;;3.70;1.60;;;15.10;83.50;;;;;;6006058;23;20537;-73
2023/03/26 01:45:31;;;;;;;2.90;1.60;;;15.10;83.10;;;;;;6006487;23;20159;-72
2023/03/26 01:47:59;;;;;;;3.67;1.40;;;15.20;83.10;;;;;;6005628;23;20165;-72
2023/03/26 01:50:28;;;;;;;2.97;1.57;;;15.20;84.30;;;;;;6007206;23;20180;-72
2023/03/26 01:52:56;;;;;;;4.00;1.50;;;15.30;84.50;;;;;;6006131;23;20207;-72
2023/03/26 01:55:33;;;;;;;2.63;1.23;;;15.30;85.50;;;;;;6008096;23;20180;-72
2023/03/26 01:58:13;;;;;;;1.87;1.30;;;15.30;86.30;;;;;;6044814;23;20268;-71
2023/03/26 02:00:49;;;;;;;2.33;1.40;;;15.30;87.60;;;;;;6065350;23;20185;-72
2023/03/26 02:03:25;;;;;;;3.83;1.27;;;15.20;88.70;;;;;;6064123;23;20194;-73
2023/03/26 02:05:57;;;;;;;2.10;1.10;;;15.20;88.70;;;;;;6065794;23;20166;-72
2023/03/26 02:08:34;;;;;;;2.37;1.10;;;15.20;89.50;;;;;;6063861;23;20159;-73
2023/03/26 02:11:10;;;;;;;1.40;1.10;;;15.20;89.90;;;;;;6065139;23;20213;-73
2023/03/26 02:13:39;;;;;;;2.07;1.10;;;15.20;90.00;;;;;;6064994;23;20159;-71
2023/03/26 02:16:12;;;;;;;2.80;1.20;;;15.20;90.50;;;;;;6066417;23;20179;-71
2023/03/26 02:18:41;;;;;;;5.90;1.33;;;15.10;90.60;;;;;;6063923;23;20165;-72
2023/03/26 02:21:12;;;;;;;3.50;1.50;;;15.10;90.50;;;;;;6063624;23;20558;-72
2023/03/26 02:23:45;;;;;;;2.93;1.33;;;15.10;91.10;;;;;;6063323;23;20159;-74
2023/03/26 02:26:18;;;;;;;1.97;1.20;;;15.10;91.60;;;;;;6065631;23;20656;-71
2023/03/26 02:28:48;;;;;;;5.63;2.03;;;15.00;91.40;;;;;;6064051;23;20163;-74
2023/03/26 02:31:20;;;;;;;3.13;1.53;;;15.00;91.40;;;;;;6064813;23;20159;-73
2023/03/26 02:33:49;;;;;;;3.23;1.30;;;15.00;91.60;;;;;;6064119;23;20412;-73
2023/03/26 02:36:20;;;;;;;3.57;1.50;;;15.00;91.50;;;;;;6065755;23;20552;-72
2023/03/26 02:38:49;;;;;;;2.77;1.37;;;15.00;91.50;;;;;;6063514;23;20167;-72
2023/03/26 02:41:19;;;;;;;4.27;1.47;;;15.00;92.10;;;;;;6060793;23;20195;-75
2023/03/26 02:43:47;;;;;;;3.07;1.30;;;14.90;92.60;;;;;;6060532;23;20655;-75
2023/03/26 02:46:16;;;;;;;3.17;1.37;;;14.90;92.60;;;;;;6051963;23;20656;-74
2023/03/26 02:48:44;;;;;;;4.03;2.20;;;14.90;92.50;;;;;;6064794;23;20233;-74
2023/03/26 02:51:12;;;;;;;4.30;1.70;;;14.90;92.80;;;;;;6063673;23;20230;-74
2023/03/26 02:53:41;;;;;;;3.80;1.83;;;14.90;92.50;;;;;;6066143;23;20182;-74
2023/03/26 02:56:09;;;;;;;3.33;1.60;;;15.00;92.50;;;;;;6062778;23;20190;-75
2023/03/26 02:58:39;;;;;;;4.67;1.47;;;15.00;92.60;;;;;;6062436;23;20202;-73
2023/03/26 03:01:08;;;;;;;3.83;1.70;;;14.90;93.00;;;;;;6062821;23;20423;-77
2023/03/26 03:03:36;;;;;;;2.80;1.53;;;14.90;92.80;;;;;;6063194;23;20179;-76
2023/03/26 03:06:05;;;;;;;4.93;1.87;;;14.90;93.00;;;;;;6064275;23;20636;-74
2023/03/26 03:08:34;;;;;;;4.03;1.60;;;14.90;93.10;;;;;;6064066;23;20657;-74
2023/03/26 03:11:07;;;;;;;5.47;2.20;;;14.90;93.50;;;;;;6064810;23;20178;-75
2023/03/26 03:13:35;;;;;;;2.93;1.70;;;14.80;93.70;;;;;;6064802;23;20643;-74
2023/03/26 03:16:05;;;;;;;4.73;1.93;;;14.80;93.80;;;;;;6065309;23;20164;-74
2023/03/26 03:18:34;;;;;;;2.97;1.97;;;14.80;93.80;;;;;;6062035;23;20196;-73
2023/03/26 03:21:02;;;;;;;4.43;2.10;;;14.70;94.00;;;;;;6066505;23;20194;-73
2023/03/26 03:23:31;;;;;;;3.13;1.97;;;14.70;94.40;;;;;;6064989;23;20179;-73
2023/03/26 03:26:01;;;;;;;4.57;2.13;;;14.70;94.30;;;;;;6063113;23;20175;-74
2023/03/26 03:28:30;;;;;;;3.67;2.50;;;14.70;94.50;;;;;;6062671;23;20159;-74
2023/03/26 03:30:58;;;;;;;4.97;2.60;;;14.70;94.50;;;;;;6063963;23;20175;-75
2023/03/26 03:33:28;;;;;;;8.67;2.87;;;14.60;94.80;;;;;;6064010;23;20174;-74
2023/03/26 03:35:58;;;;;;;7.37;2.63;;;14.60;94.80;;;;;;6065037;23;20210;-75
2023/03/26 03:38:26;;;;;;;4.67;2.47;;;14.60;94.60;;;;;;6066092;23;20174;-74
2023/03/26 03:40:54;;;;;;;4.47;2.60;;;14.60;94.40;;;;;;6066263;23;20202;-74
2023/03/26 03:43:23;;;;;;;4.87;2.60;;;14.60;94.60;;;;;;6064038;23;20230;-74
2023/03/26 03:45:51;;;;;;;5.37;2.53;;;14.60;94.70;;;;;;6062973;23;20531;-74
2023/03/26 03:48:19;;;;;;;7.53;2.93;;;14.60;94.80;;;;;;6064587;23;20245;-74
2023/03/26 03:50:49;;;;;;;5.40;2.60;;;14.60;94.90;;;;;;6064718;23;20234;-74
2023/03/26 03:53:18;;;;;;;5.47;2.60;;;14.60;94.60;;;;;;6065202;23;20792;-73
2023/03/26 03:55:51;;;;;;;4.63;2.57;;;14.60;94.70;;;;;;6066174;23;20174;-73
2023/03/26 03:58:21;;;;;;;6.37;2.77;;;14.60;94.90;;;;;;6063577;23;20205;-72
2023/03/26 04:00:49;;;;;;;5.23;2.50;;;14.50;95.10;;;;;;6063780;23;20208;-73
2023/03/26 04:03:19;;;;;;;4.83;2.57;;;14.50;94.90;;;;;;6064144;23;20178;-73
2023/03/26 04:06:05;;;;;;;5.90;2.90;;;14.50;95.10;;;;;;6064743;23;20166;-74
2023/03/26 04:08:34;;;;;;;5.40;2.50;;;14.50;95.30;;;;;;6060654;23;20158;-74
2023/03/26 04:11:02;;;;;;;5.47;2.60;;;14.50;95.00;;;;;;6064668;23;20250;-73
2023/03/26 04:13:31;;;;;;;4.03;2.50;;;14.40;95.30;;;;;;6060375;23;20181;-73
2023/03/26 04:15:59;;;;;;;6.57;2.90;;;14.40;95.30;;;;;;6065308;23;20541;-74
2023/03/26 04:18:29;;;;;;;6.97;2.87;;;14.40;95.10;;;;;;6062505;23;20188;-73
2023/03/26 04:21:02;;;;;;;6.53;3.13;;;14.40;95.00;;;;;;6063149;23;20194;-75
2023/03/26 04:23:33;;;;;;;5.70;3.00;;;14.50;95.00;;;;;;6064036;23;20195;-72
2023/03/26 04:26:04;;;;;;;4.57;3.03;;;14.40;95.20;;;;;;6065446;23;20170;-73
2023/03/26 04:28:40;;;;;;;7.43;3.27;;;14.40;95.10;;;;;;6061373;23;20593;-74
2023/03/26 04:31:14;;;;;;;6.57;3.20;;;14.40;95.00;;;;;;6063289;23;20162;-73
2023/03/26 04:33:46;;;;;;;4.83;2.90;;;14.40;95.20;;;;;;6062212;23;20167;-74
2023/03/26 04:36:15;;;;;;;5.03;3.33;;;14.40;95.30;;;;;;6066007;23;20243;-73
2023/03/26 04:38:47;;;;;;;6.20;3.40;;;14.30;95.30;;;;;;6061705;23;20175;-73
2023/03/26 04:41:16;;;;;;;5.47;3.30;;;14.40;95.30;;;;;;6065017;23;20561;-75
2023/03/26 04:43:49;;;;;;;6.77;3.27;;;14.30;95.30;;;;;;6060882;23;20569;-74
2023/03/26 04:46:20;;;;;;;5.90;3.27;;;14.30;95.30;;;;;;6063117;23;20217;-73
2023/03/26 04:48:49;;;;;;;5.27;3.03;;;14.30;95.30;;;;;;6062547;23;21143;-73
2023/03/26 04:51:18;;;;;;;6.40;3.13;;;14.30;95.30;;;;;;6059878;23;20186;-72
2023/03/26 04:53:52;;;;;;;10.43;3.60;;;14.30;95.30;;;;;;6062094;23;20182;-73
2023/03/26 04:56:32;;;;;;;5.07;3.13;;;14.30;95.30;;;;;;6064621;23;20209;-72
2023/03/26 04:59:01;;;;;;;5.70;3.60;;;14.40;95.40;;;;;;6063416;23;20166;-72
2023/03/26 05:01:30;;;;;;;6.27;3.07;;;14.30;95.60;;;;;;6060381;23;20253;-73
2023/03/26 05:03:59;;;;;;;5.70;3.30;;;14.30;95.40;;;;;;6060602;23;20178;-73
2023/03/26 05:06:29;;;;;;;4.90;3.17;;;14.30;95.60;;;;;;6064461;23;20210;-72
2023/03/26 05:08:58;;;;;;;8.20;3.60;;;14.30;95.60;;;;;;6062413;23;20213;-73
2023/03/26 05:11:27;;;;;;;4.40;2.97;;;14.30;95.50;;;;;;6064885;23;21024;-73
2023/03/26 05:13:56;;;;;;;5.53;3.07;;;14.30;95.40;;;;;;6060732;23;20182;-72
2023/03/26 05:16:25;;;;;;;5.13;2.73;;;14.40;95.60;;;;;;6063645;23;20202;-72
2023/03/26 05:18:54;;;;;;;4.47;3.07;;;14.30;95.50;;;;;;6064168;23;20700;-73
2023/03/26 05:21:22;;;;;;;4.67;3.20;;;14.30;95.70;;;;;;6062174;23;20198;-73
2023/03/26 05:23:50;;;;;;;6.30;3.37;;;14.40;95.70;;;;;;6063035;23;20558;-73
2023/03/26 05:26:20;;;;;;;7.43;2.97;;;14.40;95.60;;;;;;6063037;23;20178;-73
2023/03/26 05:28:49;;;;;;;6.10;3.43;;;14.40;95.70;;;;;;6063851;23;20182;-73
2023/03/26 05:31:21;;;;;;;6.00;3.00;;;14.40;95.70;;;;;;6064261;23;20534;-73
2023/03/26 05:33:49;;;;;;;5.27;3.33;;;14.40;95.50;;;;;;6063415;23;20563;-73
2023/03/26 05:36:18;;;;;;;5.43;3.07;;;14.40;95.50;;;;;;6064735;23;20174;-72
2023/03/26 05:38:48;;;;;;;4.73;3.03;;;14.50;95.50;;;;;;6064101;23;20201;-73
2023/03/26 05:41:17;;;;;;;4.67;2.83;;;14.40;95.60;;;;;;6063695;23;20178;-74
2023/03/26 05:43:47;;;;;;;6.20;3.53;;;14.50;95.50;;;;;;6060718;23;20178;-74
2023/03/26 05:46:16;;;;;;;4.77;2.40;;;14.50;95.40;;;;;;6062338;23;20222;-74
2023/03/26 05:48:45;;;;;;;8.10;2.80;;;14.50;95.50;;;;;;6064802;23;20181;-74
2023/03/26 05:51:15;;;;;;;6.30;2.80;;;14.60;95.30;;;;;;6060567;23;20624;-73
2023/03/26 05:53:43;;;;;;;5.73;3.07;;;14.60;95.20;;;;;;6064103;23;20625;-75
2023/03/26 05:56:12;;;;;;;5.77;2.90;;;14.60;95.10;;;;;;6058700;23;20602;-74
2023/03/26 05:58:40;;;;;;;6.47;3.23;;;14.60;95.10;;;;;;6064037;23;20559;-74
2023/03/26 06:01:15;;;;;;;4.57;2.53;;;14.70;95.10;;;;;;6062354;23;20186;-74
2023/03/26 06:03:45;;;;;;;4.77;2.40;;;14.70;94.90;;;;;;6039183;23;20174;-74
2023/03/26 06:06:16;;;;;;;4.80;2.80;;;14.80;94.80;;;;;;6061780;23;20166;-73
2023/03/26 06:08:45;;;;;;;5.90;3.13;;;14.80;94.70;;;;;;6065327;23;20159;-73
2023/03/26 06:11:14;;;;;;;9.13;2.90;;;14.90;94.60;;;;;;6062742;23;20511;-73
2023/03/26 06:13:43;;;;;;;7.00;3.53;;;14.90;94.50;;;;;;6059395;23;20581;-74
2023/03/26 06:16:16;;;;;;;4.30;2.57;;;15.10;94.40;;;;;;6060146;23;20230;-74
2023/03/26 06:18:55;;;;;;;7.23;3.77;;;15.10;94.20;;;;;;6062442;23;20194;-74
2023/03/26 06:21:24;;;;;;;4.60;2.67;;;15.30;94.00;;;;;;6060277;23;20178;-74
2023/03/26 06:23:53;;;;;;;4.67;2.60;;;15.40;94.00;;;;;;6063536;23;20189;-75
2023/03/26 06:26:21;;;;;;;4.80;2.57;;;15.40;93.80;;;;;;6063279;23;20163;-75
2023/03/26 06:28:50;;;;;;;6.27;2.60;;;15.50;93.80;;;;;;6059767;23;20677;-74
2023/03/26 06:31:19;;;;;;;7.57;2.63;;;15.50;93.70;;;;;;6059095;23;20183;-75
2023/03/26 06:33:48;;;;;;;4.57;2.90;;;15.60;93.60;;;;;;6059597;23;20266;-75
2023/03/26 06:36:16;;;;;;;6.17;2.73;;;15.70;93.90;;;;;;6062285;23;20167;-75
2023/03/26 06:38:45;;;;;;;3.73;2.20;;;15.70;93.50;;;;;;6065890;23;20235;-75
2023/03/26 06:41:14;;;;;;;4.73;2.60;;;15.80;93.40;;;;;;6064013;23;20233;-75
2023/03/26 06:43:42;;;;;;;4.60;2.80;;;15.80;93.30;;;;;;6066650;23;20194;-75
2023/03/26 06:46:12;;;;;;;4.57;2.40;;;15.80;93.20;;;;;;6064704;23;20234;-74
2023/03/26 06:48:42;;;;;;;5.03;2.43;;;15.70;92.60;;;;;;6065235;23;20234;-76
2023/03/26 06:51:10;;;;;;;3.20;2.23;;;15.70;92.40;;;;;;6066345;23;20503;-75
2023/03/26 06:53:39;;;;;;;3.63;2.17;;;15.70;92.30;;;;;;6064580;23;20632;-75
2023/03/26 06:56:08;;;;;;;4.20;2.10;;;15.70;92.20;;;;;;6067076;23;20182;-74
2023/03/26 06:58:37;;;;;;;3.13;1.80;;;15.70;92.20;;;;;;6064541;23;20233;-75
2023/03/26 07:01:06;;;;;;;5.10;2.47;;;15.70;91.70;;;;;;6064647;23;20632;-74
2023/03/26 07:03:34;;;;;;;6.70;2.57;;;15.70;91.80;;;;;;6064146;23;20517;-72
2023/03/26 07:06:04;;;;;;;3.70;1.93;;;15.70;91.80;;;;;;6064640;23;20178;-73
2023/03/26 07:08:33;;;;;;;4.03;1.57;;;15.70;91.50;;;;;;6064608;23;20166;-73
2023/03/26 07:11:01;;;;;;;2.73;1.50;;;15.60;91.10;;;;;;6065566;23;20660;-73
2023/03/26 07:13:29;;;;;;;4.50;1.47;;;15.70;90.60;;;;;;6063770;23;20174;-73
2023/03/26 07:15:58;;;;;;;2.27;1.20;;;15.70;90.20;;;;;;6065450;23;20179;-74
2023/03/26 07:18:26;;;;;;;4.27;1.00;;;15.70;89.80;;;;;;6064651;23;20175;-73
2023/03/26 07:20:55;;;;;;;3.10;1.27;;;15.80;89.70;;;;;;6064299;23;20179;-74
2023/03/26 07:23:26;;;;;;;3.27;1.33;;;15.90;89.70;;;;;;6067971;23;20249;-73
2023/03/26 07:25:55;;;;;;;1.87;1.17;;;16.10;90.00;;;;;;6066790;23;20673;-74
2023/03/26 07:28:31;;;;;;;1.83;0.90;;;16.20;90.00;;;;;;6065136;23;20175;-73
2023/03/26 07:31:10;;;;;;;1.73;1.10;;;16.30;89.70;;;;;;6067243;23;20552;-74
2023/03/26 07:33:45;;;;;;;1.83;0.80;;;16.30;87.40;;;;;;6066357;23;20170;-73
2023/03/26 07:36:24;;;;;;;0.90;0.70;;;16.30;86.40;;;;;;6067892;23;20162;-73
2023/03/26 07:39:12;;;;;;;2.23;0.97;;;16.40;86.60;;;;;;6066173;23;20166;-73
2023/03/26 07:41:45;;;;;;;0.70;0.50;;;16.40;86.60;;;;;;6066063;23;20199;-76
2023/03/26 07:44:36;;;;;;;1.33;0.70;;;16.50;86.20;;;;;;6066129;23;20189;-74
2023/03/26 07:47:15;;;;;;;1.30;0.70;;;16.60;85.30;;;;;;6062206;23;20245;-74
2023/03/26 07:49:44;;;;;;;1.10;0.60;;;16.60;84.30;;;;;;6064074;23;20214;-73
2023/03/26 07:52:12;;;;;;;1.30;0.57;;;16.70;83.50;;;;;;6063473;23;20597;-74
2023/03/26 07:54:43;;;;;;;0.97;0.60;;;16.70;82.90;;;;;;6066162;23;20238;-73
2023/03/26 07:57:18;;;;;;;0.90;0.60;;;16.60;81.60;;;;;;6065232;23;20203;-74
2023/03/26 07:59:52;;;;;;;1.40;0.80;;;16.70;81.60;;;;;;6062662;23;20700;-76
2023/03/26 08:02:35;;;;;;;0.77;0.50;;;16.70;82.00;;;;;;6063861;23;20187;-75
2023/03/26 08:05:18;;;;;;;0.47;0.40;;;16.80;82.10;;;;;;6063836;23;20202;-73
2023/03/26 08:08:01;;;;;;;0.40;0.40;;;16.80;80.90;;;;;;6066198;23;20218;-73
2023/03/26 08:10:41;;;;;;;2.63;0.50;;;16.90;81.10;;;;;;6065000;23;20159;-73
2023/03/26 08:13:33;;;;;;;1.90;0.40;;;17.00;80.80;;;;;;6065195;23;20159;-75
2023/03/26 08:16:07;;;;;;;0.50;0.37;;;17.00;79.90;;;;;;6064538;23;20628;-74
2023/03/26 08:22:44;;;;;;;1.90;0.40;;;17.20;79.50;;;;;;6055667;23;20194;-76
2023/03/26 08:25:33;;;;;;;0.47;0.40;;;17.20;79.00;;;;;;6063796;23;20605;-70
2023/03/26 08:28:21;;;;;;;0.90;0.50;;;17.30;78.80;;;;;;6065227;23;20159;-70
2023/03/26 08:30:49;;;;;;;0.60;0.50;;;17.30;78.20;;;;;;6061863;23;20597;-70
2023/03/26 08:33:20;;;;;;;0.70;0.37;;;17.30;77.50;;;;;;6064929;23;20193;-73
2023/03/26 08:35:49;;;;;;;0.60;0.40;;;17.40;77.60;;;;;;6066135;23;20222;-73
2023/03/26 08:38:19;;;;;;;3.70;0.50;;;17.40;77.70;;;;;;6064002;23;20174;-73
2023/03/26 08:41:30;;;;;;;0.73;0.40;;;17.50;77.60;;;;;;6064180;23;20214;-71
2023/03/26 08:44:27;;;;;;;1.23;0.53;;;17.60;77.70;;;;;;6067189;23;20640;-73
2023/03/26 08:47:27;;;;;;;1.47;0.60;;;17.60;76.80;;;;;;6064033;23;20637;-71
2023/03/26 08:50:35;;;;;;;0.67;0.50;;;17.70;75.90;;;;;;6065283;23;20159;-73
2023/03/26 08:53:41;;;;;;;1.60;0.70;;;17.70;76.70;;;;;;5946083;24;20237;-72
2023/03/26 08:56:19;;;;;;;0.60;0.40;;;17.70;76.10;;;;;;6040332;23;20182;-71
2023/03/26 08:59:18;;;;;;;1.97;0.60;;;17.70;75.50;;;;;;6065651;23;20515;-72
2023/03/26 09:02:17;;;;;;;2.20;0.67;;;17.70;76.00;;;;;;6064497;23;20162;-72
2023/03/26 09:05:22;;;;;;;1.43;0.63;;;17.70;75.40;;;;;;6063591;23;20178;-74
2023/03/26 09:08:43;;;;;;;0.73;0.57;;;17.70;76.10;;;;;;6024254;23;20233;-72
2023/03/26 09:12:02;;;;;;;0.63;0.50;;;17.70;75.20;;;;;;6057655;23;20676;-76
2023/03/26 09:15:09;;;;;;;1.37;0.80;;;17.80;75.00;;;;;;6017948;23;20249;-77
2023/03/26 09:18:11;;;;;;;5.70;0.80;;;17.80;73.60;;;;;;6066750;23;20163;-76
2023/03/26 09:20:54;;;;;;;1.60;0.73;;;17.80;74.00;;;;;;6059897;23;20182;-76
2023/03/26 09:23:56;;;;;;;1.50;0.60;;;17.80;73.20;;;;;;6063049;23;20257;-78
2023/03/26 09:26:27;;;;;;;1.37;0.70;;;17.80;74.10;;;;;;6061934;23;20233;-77
2023/03/26 09:29:27;;;;;;;0.90;0.60;;;17.90;73.20;;;;;;6065012;23;20163;-78
2023/03/26 09:32:31;;;;;;;1.83;0.97;;;18.00;73.00;;;;;;6060749;23;20522;-77
2023/03/26 09:35:13;;;;;;;2.87;0.70;;;18.00;72.90;;;;;;6063510;23;20515;-77
2023/03/26 09:37:56;;;;;;;1.60;0.93;;;18.00;74.00;;;;;;6063108;23;20206;-73
2023/03/26 09:40:37;;;;;;;1.37;0.80;;;18.00;73.60;;;;;;6063735;23;20210;-71
2023/03/26 09:43:48;;;;;;;2.23;0.90;;;18.10;73.30;;;;;;6061816;23;20163;-73
2023/03/26 09:46:29;;;;;;;3.70;0.87;;;18.10;72.80;;;;;;5956094;23;20180;-73
2023/03/26 09:49:21;;;;;;;1.73;0.80;;;18.20;70.80;;;;;;6062052;23;20167;-72
2023/03/26 09:52:03;;;;;;;1.53;0.87;;;18.30;71.90;;;;;;6062290;23;20178;-76
2023/03/26 09:54:58;;;;;;;3.07;1.00;;;18.30;71.70;;;;;;6063070;23;20872;-72
2023/03/26 09:58:01;;;;;;;4.07;0.80;;;18.30;70.00;;;;;;6065707;23;20198;-75
2023/03/26 10:01:09;;;;;;;2.33;1.00;;;18.40;70.10;;;;;;6060098;23;20167;-75
2023/03/26 10:03:54;;;;;;;1.67;1.00;;;18.50;70.80;;;;;;6062280;23;20187;-73
2023/03/26 10:06:43;;;;;;;1.93;0.93;;;18.60;71.10;;;;;;6063607;23;20163;-74
2023/03/26 10:09:31;;;;;;;1.90;0.90;;;18.70;70.60;;;;;;6063326;23;20163;-74
2023/03/26 10:12:19;;;;;;;1.93;0.90;;;18.80;70.10;;;;;;6062357;23;20174;-73
2023/03/26 10:14:59;;;;;;;2.13;0.80;;;18.90;68.00;;;;;;6063416;23;20163;-74
2023/03/26 10:17:46;;;;;;;2.23;0.80;;;18.90;63.20;;;;;;6063686;23;20623;-74
2023/03/26 10:20:31;;;;;;;1.10;0.70;;;18.90;62.30;;;;;;6064656;23;20159;-73
2023/03/26 10:23:14;;;;;;;2.20;0.80;;;19.00;61.90;;;;;;6063400;23;20578;-73
2023/03/26 10:25:58;;;;;;;2.27;0.80;;;19.10;63.60;;;;;;6063754;23;20163;-74
2023/03/26 10:28:44;;;;;;;1.67;0.70;;;19.20;62.50;;;;;;6061970;23;20163;-73
2023/03/26 10:31:42;;;;;;;2.13;0.90;;;19.20;61.10;;;;;;6065510;23;20162;-74
2023/03/26 10:34:40;;;;;;;1.83;1.03;;;19.30;62.00;;;;;;6000823;23;20170;-76
2023/03/26 10:37:20;;;;;;;3.80;1.30;;;19.20;62.20;;;;;;6065387;23;20178;-77
2023/03/26 10:40:12;;;;;;;2.13;1.10;;;19.10;61.70;;;;;;6060096;23;20171;-74
2023/03/26 10:42:58;;;;;;;2.20;1.10;;;19.20;61.70;;;;;;6064158;23;20627;-73
2023/03/26 10:45:36;;;;;;;3.03;1.10;;;19.20;61.30;;;;;;6064396;23;20179;-73
2023/03/26 10:48:36;;;;;;;3.03;1.20;;;19.30;60.80;;;;;;6066406;23;20174;-74
2023/03/26 10:51:29;;;;;;;4.10;1.40;;;19.40;61.70;;;;;;6065373;23;20233;-75
2023/03/26 10:54:05;;;;;;;1.80;0.97;;;19.50;60.40;;;;;;6064540;23;20198;-72
2023/03/26 10:56:38;;;;;;;2.50;1.23;;;19.70;60.80;;;;;;6066776;23;20525;-74
2023/03/26 10:59:08;;;;;;;6.33;1.03;;;19.80;61.30;;;;;;6066762;23;20163;-73
2023/03/26 11:01:43;;;;;;;1.90;0.60;;;19.90;60.50;;;;;;6064463;23;20601;-72
2023/03/26 11:04:25;;;;;;;2.75;1.05;;;20.00;59.70;;;;;;6061682;23;20378;-73
2023/03/26 11:07:05;;;;;;;2.00;0.70;;;20.10;59.00;;;;;;6062658;23;20474;-73
2023/03/26 11:09:45;;;;;;;2.70;1.15;;;20.30;58.80;;;;;;6060533;23;20205;-73
2023/03/26 11:12:22;;;;;;;2.28;0.85;;;20.30;59.00;;;;;;6064029;23;20604;-73
2023/03/26 11:15:12;;;;;;;5.15;0.80;;;20.40;59.10;;;;;;6063692;23;20162;-73
2023/03/26 11:17:51;;;;;;;2.28;1.10;;;20.60;60.20;;;;;;6063636;23;20166;-72
2023/03/26 11:20:32;;;;;;;4.13;1.15;;;20.70;60.60;;;;;;6063605;23;20616;-72
2023/03/26 11:23:26;;;;;;;1.50;0.80;;;20.70;60.70;;;;;;6064743;23;20186;-73
2023/03/26 11:26:16;;;;;;;3.22;0.73;;;20.80;58.70;;;;;;6062636;23;20230;-73
2023/03/26 11:29:06;;;;;;;2.63;0.70;;;21.00;58.60;;;;;;6065295;23;20159;-74
2023/03/26 11:32:01;;;;;;;2.30;0.60;;;21.00;57.10;;;;;;6065549;23;20181;-72
2023/03/26 11:34:37;;;;;;;1.10;0.60;;;21.00;56.50;;;;;;6065065;23;20601;-73
2023/03/26 11:37:13;;;;;;;1.23;0.60;;;21.10;56.40;;;;;;6065000;23;20524;-72
2023/03/26 11:39:48;;;;;;;1.83;0.77;;;21.00;55.10;;;;;;6062963;23;20163;-72
2023/03/26 11:42:22;;;;;;;1.65;0.57;;;21.00;49.00;;;;;;6063419;23;20166;-74
2023/03/26 11:44:55;;;;;;;1.92;0.68;;;20.90;48.50;;;;;;6062868;23;20222;-71
2023/03/26 11:47:31;;;;;;;1.92;0.73;;;21.10;50.10;;;;;;6066876;23;20159;-73
2023/03/26 11:50:39;;;;;;;0.73;0.40;;;21.20;51.00;;;;;;6059718;23;20163;-78
2023/03/26 11:57:11;;;;;;;3.33;0.82;;;21.40;51.90;;;;;;6012956;23;20198;-76
2023/03/26 11:59:46;;;;;;;2.88;0.70;;;21.50;51.80;;;;;;6064508;23;20243;-77
2023/03/26 12:02:31;;;;;;;1.77;0.80;;;21.60;51.50;;;;;;6063929;23;20195;-75
2023/03/26 12:05:20;;;;;;;3.58;1.10;;;21.60;50.80;;;;;;6063774;23;20221;-78
2023/03/26 12:07:57;;;;;;;1.83;0.77;;;21.80;50.90;;;;;;6065093;23;20261;-76
2023/03/26 12:10:29;;;;;;;2.00;0.60;;;21.80;51.70;;;;;;6065228;23;20668;-75
2023/03/26 12:13:00;;;;;;;0.60;0.50;;;21.90;51.10;;;;;;6062776;23;20166;-75
2023/03/26 12:15:31;;;;;;;1.90;0.90;;;22.00;49.90;;;;;;6065809;23;20159;-76
2023/03/26 12:18:17;;;;;;;5.80;1.00;;;22.00;49.50;;;;;;6065011;23;20230;-75
2023/03/26 12:20:47;;;;;;;1.85;0.75;;;22.10;49.50;;;;;;6064602;23;20604;-77
2023/03/26 12:23:36;;;;;;;2.58;0.70;;;22.10;49.50;;;;;;6063868;23;20178;-76
2023/03/26 12:26:13;;;;;;;7.78;2.90;;;22.30;49.90;;;;;;6064190;23;20246;-77
2023/03/26 12:28:45;;;;;;;2.70;0.63;;;22.40;49.90;;;;;;6063456;23;20723;-78
2023/03/26 12:31:18;;;;;;;1.60;0.60;;;22.30;48.90;;;;;;6065355;23;20171;-76
2023/03/26 12:34:06;;;;;;;1.42;0.80;;;22.30;49.20;;;;;;6061927;23;20169;-75
2023/03/26 12:36:37;;;;;;;5.40;1.05;;;22.30;48.20;;;;;;6065138;23;20302;-77
2023/03/26 12:39:31;;;;;;;2.78;0.70;;;22.40;48.50;;;;;;6063318;23;20170;-76
2023/03/26 12:42:28;;;;;;;3.30;0.75;;;22.40;46.80;;;;;;6063030;23;20213;-75
2023/03/26 12:45:19;;;;;;;1.85;0.73;;;22.50;47.30;;;;;;6063989;23;20190;-76
2023/03/26 12:47:51;;;;;;;0.85;0.50;;;22.40;47.10;;;;;;6063244;23;20167;-76
2023/03/26 12:50:40;;;;;;;0.82;0.50;;;22.30;46.90;;;;;;6064013;23;20233;-79
2023/03/26 12:53:50;;;;;;;0.70;0.50;;;22.40;47.30;;;;;;6063143;23;20218;-76
2023/03/26 12:56:26;;;;;;;2.78;0.80;;;22.40;45.60;;;;;;6054803;23;20202;-76
2023/03/26 12:59:20;;;;;;;1.25;0.50;;;22.60;46.30;;;;;;6005758;23;20548;-76
2023/03/26 13:02:00;;;;;;;3.22;1.00;;;22.50;45.30;;;;;;6005326;23;20244;-75
2023/03/26 13:04:48;;;;;;;4.07;0.90;;;22.60;46.10;;;;;;6007766;23;20164;-77
2023/03/26 13:07:42;;;;;;;2.05;0.90;;;22.60;45.60;;;;;;6006096;23;20254;-77
2023/03/26 13:10:33;;;;;;;1.83;0.60;;;22.80;45.80;;;;;;6008097;23;20164;-74
2023/03/26 13:13:13;;;;;;;1.95;0.68;;;23.00;45.30;;;;;;6007040;23;20179;-76
2023/03/26 13:15:46;;;;;;;1.92;0.60;;;23.10;45.00;;;;;;6003826;23;20216;-76
2023/03/26 13:18:27;;;;;;;1.48;0.60;;;23.20;44.70;;;;;;6004326;23;20160;-76
2023/03/26 13:21:04;;;;;;;1.98;0.60;;;23.40;45.30;;;;;;6007925;23;20164;-76
2023/03/26 13:23:42;;;;;;;1.48;0.60;;;23.70;44.40;;;;;;6005258;23;20168;-75
2023/03/26 13:26:24;;;;;;;2.75;0.60;;;23.80;43.40;;;;;;6005897;23;20179;-78
2023/03/26 13:28:59;;;;;;;2.15;0.50;;;24.10;43.70;;;;;;6003847;23;20611;-77
2023/03/26 13:31:34;;;;;;;1.73;0.50;;;24.30;43.60;;;;;;6003932;23;20163;-77
2023/03/26 13:34:11;;;;;;;2.83;0.80;;;24.60;43.40;;;;;;6008358;23;20215;-78
2023/03/26 13:36:52;;;;;;;3.03;0.65;;;25.10;42.80;;;;;;6008701;23;20216;-77
2023/03/26 13:39:27;;;;;;;1.23;0.77;;;25.70;42.30;;;;;;6008132;23;20493;-77
2023/03/26 13:42:20;;;;;;;1.90;0.80;;;26.20;42.00;;;;;;6003919;23;20170;-77
2023/03/26 13:45:02;;;;;;;5.35;0.60;;;26.40;40.50;;;;;;6006774;23;20194;-78